createdAt,value
2022-07-29T00:03:10.888Z,72.9
2022-07-29T00:05:12.330Z,73
2022-07-29T00:07:13.989Z,73.2
2022-07-29T00:09:15.347Z,73.3
2022-07-29T00:11:20.162Z,73.5
2022-07-29T00:13:32.434Z,73.6
2022-07-29T00:15:23.199Z,73.6
2022-07-29T00:17:24.711Z,73.6
2022-07-29T00:19:26.192Z,73.7
2022-07-29T00:25:34.055Z,74.9
2022-07-29T00:29:37.028Z,75.4
2022-07-29T00:33:40.066Z,75.4
2022-07-29T00:35:41.548Z,75.5
2022-07-29T00:43:50.869Z,76
2022-07-29T00:45:52.385Z,76
2022-07-29T00:47:53.918Z,76.1
2022-07-29T00:49:55.412Z,76.2
2022-07-29T00:51:56.917Z,76.5
2022-07-29T00:54:01.766Z,76.9
2022-07-29T00:56:03.248Z,77.2
2022-07-29T00:58:04.763Z,77.5
2022-07-29T00:59:07.150Z,77.7
2022-07-29T01:03:10.209Z,78.1
2022-07-29T01:05:11.710Z,78.2
2022-07-29T01:07:16.532Z,78.4
2022-07-29T01:09:18.036Z,78.4
2022-07-29T01:13:21.038Z,78.2
2022-07-29T01:15:22.574Z,78.1
2022-07-29T01:17:24.086Z,78
2022-07-29T01:19:25.616Z,78
2022-07-29T01:21:30.439Z,77.9
2022-07-29T01:23:31.918Z,78.1
2022-07-29T01:25:33.402Z,78.2
2022-07-29T01:27:34.927Z,78.3
2022-07-29T01:29:38.760Z,78.4
2022-07-29T01:31:38.549Z,78.5
2022-07-29T01:33:39.441Z,78.5
2022-07-29T01:35:44.281Z,78.6
2022-07-29T01:37:45.762Z,78.7
2022-07-29T01:39:47.318Z,78.7
2022-07-29T01:41:48.791Z,78.8
2022-07-29T01:43:50.337Z,78.9
2022-07-29T01:45:51.826Z,78.9
2022-07-29T01:47:53.309Z,79.1
2022-07-29T01:49:58.156Z,79.3
2022-07-29T01:51:59.620Z,79.5
2022-07-29T01:54:01.146Z,79.6
2022-07-29T01:57:05.066Z,79.7
2022-07-29T01:59:06.545Z,79.7
2022-07-29T02:01:08.134Z,79.5
2022-07-29T02:03:12.897Z,79.4
2022-07-29T02:05:14.488Z,79.4
2022-07-29T02:07:15.900Z,79.4
2022-07-29T02:09:17.429Z,79.4
2022-07-29T02:11:19.089Z,79.5
2022-07-29T02:15:21.938Z,79.3
2022-07-29T02:17:26.756Z,79
2022-07-29T02:19:28.285Z,78.9
2022-07-29T02:21:29.746Z,78.8
2022-07-29T02:25:37.179Z,78.7
2022-07-29T02:27:34.289Z,78.7
2022-07-29T02:29:35.832Z,78.6
2022-07-29T02:31:40.682Z,78.4
2022-07-29T02:33:42.165Z,78.4
2022-07-29T02:35:43.663Z,78.3
2022-07-29T02:37:45.133Z,78.1
2022-07-29T02:43:49.623Z,77.6
2022-07-29T02:45:54.455Z,77.5
2022-07-29T02:47:55.983Z,77.5
2022-07-29T02:49:57.439Z,77.5
2022-07-29T02:52:20.636Z,77.6
2022-07-29T02:54:22.157Z,77.8
2022-07-29T02:56:23.642Z,77.9
2022-07-29T03:00:29.999Z,78.2
2022-07-29T03:02:31.997Z,78.4
2022-07-29T03:04:33.006Z,78.4
2022-07-29T03:06:38.780Z,78.4
2022-07-29T03:08:35.946Z,78.4
2022-07-29T03:10:37.471Z,78.4
2022-07-29T03:12:42.298Z,78.4
2022-07-29T03:14:43.765Z,78.4
2022-07-29T03:16:45.474Z,78.5
2022-07-29T03:18:46.785Z,78.6
2022-07-29T03:20:48.293Z,78.6
2022-07-29T03:22:49.814Z,78.7
2022-07-29T03:24:51.325Z,78.7
2022-07-29T03:26:56.083Z,78.9
2022-07-29T03:35:02.150Z,78.5
2022-07-29T03:37:03.637Z,78.4
2022-07-29T03:39:05.154Z,78.3
2022-07-29T03:43:11.420Z,78.6
2022-07-29T03:45:12.926Z,78.8
2022-07-29T03:46:15.411Z,79
2022-07-29T03:48:16.855Z,79.2
2022-07-29T03:50:18.374Z,79.5
2022-07-29T04:02:30.940Z,82.8
2022-07-29T04:04:32.204Z,83.3
2022-07-29T04:06:33.728Z,84
2022-07-29T04:08:38.528Z,85.4
2022-07-29T04:14:43.018Z,87.7
2022-07-29T04:18:46.053Z,89.2
2022-07-29T04:20:47.567Z,89.7
2022-07-29T04:22:52.364Z,90.4
2022-07-29T04:24:53.887Z,90.5
2022-07-29T04:26:55.394Z,90.9
2022-07-29T04:28:56.897Z,90.9
2022-07-29T04:30:58.447Z,91.1
2022-07-29T04:32:59.922Z,91.2
2022-07-29T04:35:01.488Z,91.4
2022-07-29T04:37:06.266Z,91.9
2022-07-29T04:39:07.773Z,92.4
2022-07-29T04:41:09.284Z,92.7
2022-07-29T04:44:13.642Z,93.3
2022-07-29T04:46:14.770Z,93.6
2022-07-29T04:48:16.238Z,93.7
2022-07-29T04:50:21.017Z,93.9
2022-07-29T04:52:22.518Z,93.9
2022-07-29T04:54:24.034Z,93.9
2022-07-29T04:56:25.565Z,93.9
2022-07-29T04:58:27.090Z,93.9
2022-07-29T05:00:33.287Z,94
2022-07-29T05:02:30.162Z,94.1
2022-07-29T05:04:34.903Z,94.2
2022-07-29T05:06:36.456Z,94.2
2022-07-29T05:08:37.927Z,94.2
2022-07-29T05:10:39.443Z,94.1
2022-07-29T05:12:40.962Z,93.9
2022-07-29T05:14:42.454Z,93.9
2022-07-29T05:16:44.195Z,93.7
2022-07-29T05:18:48.769Z,93.5
2022-07-29T05:24:53.293Z,93.5
2022-07-29T05:28:56.334Z,93.6
2022-07-29T05:30:57.853Z,93.8
2022-07-29T05:33:02.620Z,94.2
2022-07-29T05:35:04.150Z,94.5
2022-07-29T05:37:07.229Z,94.9
2022-07-29T05:38:09.561Z,95.1
2022-07-29T05:40:11.123Z,95.3
2022-07-29T05:42:12.593Z,95.6
2022-07-29T05:44:14.367Z,95.7
2022-07-29T05:46:18.892Z,95.5
2022-07-29T05:48:20.392Z,95.4
2022-07-29T05:50:21.892Z,95.1
2022-07-29T05:52:23.399Z,94.7
2022-07-29T05:54:24.898Z,94.4
2022-07-29T05:56:26.424Z,94.1
2022-07-29T06:00:32.730Z,92.9
2022-07-29T06:02:34.235Z,92.4
2022-07-29T06:04:35.812Z,92.1
2022-07-29T06:06:37.229Z,91.8
2022-07-29T06:08:38.707Z,91.6
2022-07-29T06:10:40.251Z,91.5
2022-07-29T06:12:41.740Z,91
2022-07-29T06:20:51.084Z,88.9
2022-07-29T06:22:52.585Z,88.7
2022-07-29T06:24:54.073Z,88.8
2022-07-29T06:26:55.603Z,89.2
2022-07-29T06:29:00.433Z,89.3
2022-07-29T06:31:01.952Z,89.4
2022-07-29T06:33:03.393Z,89.6
2022-07-29T06:37:33.671Z,89.7
2022-07-29T06:39:35.207Z,89.5
2022-07-29T06:41:40.013Z,89
2022-07-29T06:45:43.110Z,88.3
2022-07-29T06:47:44.503Z,87.8
2022-07-29T06:49:46.018Z,87.3
2022-07-29T06:51:47.488Z,87
2022-07-29T06:54:00.514Z,86.5
2022-07-29T06:55:53.770Z,85.6
2022-07-29T06:57:55.293Z,85.6
2022-07-29T06:59:56.823Z,85.3
2022-07-29T07:01:58.319Z,84.9
2022-07-29T07:03:59.810Z,84.8
2022-07-29T07:08:02.795Z,83.9
2022-07-29T07:10:07.594Z,83.9
2022-07-29T07:12:09.070Z,83.1
2022-07-29T07:16:12.156Z,82.7
2022-07-29T07:18:13.543Z,82.5
2022-07-29T07:20:15.062Z,81.8
2022-07-29T07:26:22.766Z,77
2022-07-29T07:28:24.999Z,76.3
2022-07-29T07:31:28.245Z,75.6
2022-07-29T07:35:31.119Z,75.8
2022-07-29T07:37:35.922Z,75.7
2022-07-29T07:47:43.290Z,75.8
2022-07-29T07:49:44.772Z,75.6
2022-07-29T07:51:51.078Z,75.3
2022-07-29T07:56:10.000Z,75.4
2022-07-29T07:57:53.962Z,75.2
2022-07-29T07:59:55.376Z,75.6
2022-07-29T08:01:56.968Z,75.5
2022-07-29T08:03:58.347Z,75.2
2022-07-29T08:06:03.148Z,74.7
2022-07-29T08:08:04.605Z,74.7
2022-07-29T08:10:06.082Z,74.8
2022-07-29T08:12:07.509Z,74.6
2022-07-29T08:14:09.002Z,74.7
2022-07-29T08:16:10.532Z,74.8
2022-07-29T08:18:11.895Z,75.2
2022-07-29T08:20:16.713Z,76.5
2022-07-29T08:22:18.171Z,76.4
2022-07-29T08:24:19.636Z,76.3
2022-07-29T08:25:22.085Z,76
2022-07-29T08:27:42.550Z,75.8
2022-07-29T08:29:24.925Z,75.7
2022-07-29T08:31:26.404Z,75.1
2022-07-29T08:33:31.114Z,74.8
2022-07-29T08:35:35.667Z,74.7
2022-07-29T08:37:34.071Z,74.4
2022-07-29T08:39:35.511Z,73.9
2022-07-29T08:41:36.990Z,73.2
2022-07-29T08:43:38.560Z,72.7
2022-07-29T08:45:39.932Z,72.5
2022-07-29T08:47:44.570Z,72
2022-07-29T08:49:45.939Z,71.5
2022-07-29T08:51:49.451Z,71.1
2022-07-29T08:53:48.679Z,69.8
2022-07-29T08:55:50.197Z,69.9
2022-07-29T08:57:57.436Z,69.3
2022-07-29T08:59:52.942Z,69.1
2022-07-29T09:01:57.976Z,69
2022-07-29T09:03:59.146Z,69.3
2022-07-29T09:06:00.438Z,69.1
2022-07-29T09:08:01.886Z,69.1
2022-07-29T09:10:03.484Z,69.2
2022-07-29T09:12:04.715Z,69.3
2022-07-29T09:14:06.068Z,70
2022-07-29T09:16:10.740Z,70.4
2022-07-29T09:18:20.371Z,70.3
2022-07-29T09:20:13.602Z,70.4
2022-07-29T09:21:15.878Z,70.3
2022-07-29T09:23:24.398Z,70
2022-07-29T09:25:18.675Z,70
2022-07-29T09:27:20.026Z,69.7
2022-07-29T09:29:24.760Z,69.5
2022-07-29T09:31:26.171Z,69.6
2022-07-29T09:33:27.577Z,69.4
2022-07-29T09:35:29.015Z,69.2
2022-07-29T09:37:30.474Z,69.3
2022-07-29T09:39:31.934Z,69
2022-07-29T09:43:38.081Z,68.9
2022-07-29T09:49:42.200Z,68.5
2022-07-29T09:51:43.613Z,68.2
2022-07-29T09:53:44.974Z,68.2
2022-07-29T09:57:51.020Z,67.9
2022-07-29T10:01:54.128Z,67.8
2022-07-29T10:03:55.235Z,67.6
2022-07-29T10:05:56.550Z,67.7
2022-07-29T10:07:57.931Z,67.6
2022-07-29T10:09:59.197Z,67.5
2022-07-29T10:12:03.852Z,67.7
2022-07-29T10:14:05.231Z,67.8
2022-07-29T10:18:25.497Z,67.7
2022-07-29T10:20:31.914Z,67.7
2022-07-29T10:22:52.289Z,67.5
2022-07-29T10:24:37.880Z,67.7
2022-07-29T10:26:39.206Z,67.5
2022-07-29T10:28:40.516Z,67.4
2022-07-29T10:30:41.927Z,67.3
2022-07-29T10:32:43.264Z,67.5
2022-07-29T10:40:51.858Z,66.9
2022-07-29T10:42:53.182Z,66.5
2022-07-29T10:44:54.512Z,66.1
2022-07-29T10:46:55.920Z,65.9
2022-07-29T10:48:57.326Z,64
2022-07-29T10:50:58.665Z,63.2
2022-07-29T10:53:03.201Z,60.3
2022-07-29T10:55:04.489Z,60.3
2022-07-29T10:57:05.794Z,58.9
2022-07-29T10:59:07.081Z,58.2
2022-07-29T11:01:08.349Z,58.3
2022-07-29T11:03:10.969Z,57.8
2022-07-29T11:05:10.925Z,57.5
2022-07-29T11:09:16.724Z,58.6
2022-07-29T11:11:17.999Z,58.5
2022-07-29T11:12:20.318Z,58.6
2022-07-29T11:14:26.554Z,58.5
2022-07-29T11:16:22.853Z,58.1
2022-07-29T11:18:24.113Z,57.6
2022-07-29T11:20:28.592Z,56.8
2022-07-29T11:22:29.825Z,57.1
2022-07-29T11:26:33.858Z,57
2022-07-29T11:32:37.501Z,57.1
2022-07-29T11:36:43.307Z,56.2
2022-07-29T11:38:44.360Z,55.8
2022-07-29T11:40:45.579Z,55.9
2022-07-29T11:42:46.799Z,55.9
2022-07-29T11:44:48.038Z,56
2022-07-29T11:46:49.265Z,56.3
2022-07-29T11:50:54.942Z,56.8
2022-07-29T11:52:56.171Z,57.1
2022-07-29T11:55:00.606Z,56.9
2022-07-29T11:56:58.625Z,56.5
2022-07-29T11:58:59.870Z,56.4
2022-07-29T12:01:04.219Z,56.6
2022-07-29T12:08:12.449Z,56.6
2022-07-29T12:10:20.007Z,55.8
2022-07-29T12:12:12.767Z,55.8
2022-07-29T12:14:13.991Z,54.6
2022-07-29T12:16:25.066Z,54.2
2022-07-29T12:20:20.927Z,54.1
2022-07-29T12:22:22.204Z,53.7
2022-07-29T12:30:30.334Z,51.5
2022-07-29T12:36:34.013Z,50.7
2022-07-29T12:40:36.463Z,49.1
2022-07-29T12:42:37.680Z,49.1
2022-07-29T12:44:42.139Z,49.2
2022-07-29T12:46:43.586Z,49.5
2022-07-29T12:50:45.784Z,49.8
2022-07-29T12:52:47.025Z,50
2022-07-29T12:54:48.191Z,50
2022-07-29T12:56:49.418Z,50.1
2022-07-29T12:58:53.856Z,48
2022-07-29T13:00:55.140Z,47.2
2022-07-29T13:02:56.327Z,46.5
2022-07-29T13:03:59.850Z,45.2
2022-07-29T13:05:59.620Z,44.3
2022-07-29T13:14:07.583Z,42.2
2022-07-29T13:16:08.725Z,42.4
2022-07-29T13:18:09.910Z,43.9
2022-07-29T13:20:11.072Z,44.6
2022-07-29T13:22:12.236Z,45
2022-07-29T13:24:18.094Z,45.3
2022-07-29T13:26:17.814Z,45.5
2022-07-29T13:28:18.941Z,45.5
2022-07-29T13:30:20.112Z,45.5
2022-07-29T13:32:28.356Z,45.6
2022-07-29T13:34:22.433Z,45.5
2022-07-29T13:38:30.834Z,45.6
2022-07-29T13:40:29.158Z,45.5
2022-07-29T13:42:30.342Z,45.4
2022-07-29T13:50:34.997Z,45.1
2022-07-29T13:52:36.174Z,45
2022-07-29T13:56:41.713Z,44.3
2022-07-29T13:58:42.901Z,44
2022-07-29T14:01:03.224Z,43.5
2022-07-29T14:03:04.340Z,43.6
2022-07-29T14:05:08.543Z,43.6
2022-07-29T14:07:09.854Z,43.4
2022-07-29T14:09:11.033Z,43.3
2022-07-29T14:11:12.193Z,43.2
2022-07-29T14:13:24.398Z,42.2
2022-07-29T14:15:14.453Z,40.8
2022-07-29T14:17:15.703Z,40.7
2022-07-29T14:21:21.126Z,37.4
2022-07-29T14:23:22.281Z,37
2022-07-29T14:27:37.547Z,37.8
2022-07-29T14:29:25.657Z,37.9
2022-07-29T14:31:26.824Z,38.3
2022-07-29T14:33:27.887Z,38.7
2022-07-29T14:35:32.252Z,39
2022-07-29T14:37:37.560Z,38.9
2022-07-29T14:39:36.099Z,39.2
2022-07-29T14:45:37.788Z,39.6
2022-07-29T14:47:38.845Z,39.7
2022-07-29T14:49:43.234Z,39.5
2022-07-29T14:51:44.332Z,39.2
2022-07-29T14:53:45.429Z,39
2022-07-29T14:54:47.594Z,39
2022-07-29T14:56:48.938Z,38.8
2022-07-29T14:58:51.853Z,38.9
2022-07-29T15:00:50.973Z,39.1
2022-07-29T15:03:01.875Z,39.5
2022-07-29T15:04:56.358Z,39.7
2022-07-29T15:06:57.449Z,39.5
2022-07-29T15:08:58.554Z,39.3
2022-07-29T15:10:59.685Z,39.3
2022-07-29T15:13:00.754Z,39.4
2022-07-29T15:15:01.886Z,39
2022-07-29T15:19:07.308Z,38.5
2022-07-29T15:21:08.354Z,38.1
2022-07-29T15:23:09.475Z,37.5
2022-07-29T15:25:10.533Z,37.3
2022-07-29T15:27:11.606Z,37.1
2022-07-29T15:29:12.693Z,37.1
2022-07-29T15:31:17.124Z,36.9
2022-07-29T15:33:18.102Z,37.7
2022-07-29T15:35:19.211Z,38.1
2022-07-29T15:37:20.254Z,38.3
2022-07-29T15:39:21.341Z,38.7
2022-07-29T15:41:22.410Z,39.2
2022-07-29T15:45:32.448Z,38.7
2022-07-29T15:47:28.905Z,38.5
2022-07-29T15:49:29.976Z,37.9
2022-07-29T15:50:32.176Z,37.8
2022-07-29T15:52:33.205Z,37.5
2022-07-29T15:54:34.293Z,37
2022-07-29T15:56:35.357Z,36.9
2022-07-29T15:58:39.734Z,36.4
2022-07-29T16:00:40.846Z,36.3
2022-07-29T16:02:41.849Z,36
2022-07-29T16:04:42.940Z,36.1
2022-07-29T16:06:44.296Z,36
2022-07-29T16:08:45.127Z,36.4
2022-07-29T16:10:46.207Z,36.7
2022-07-29T16:12:50.529Z,38.2
2022-07-29T16:20:55.004Z,39.6
2022-07-29T16:22:56.160Z,39.7
2022-07-29T16:24:57.290Z,37.6
2022-07-29T16:27:01.953Z,36.2
2022-07-29T16:29:02.780Z,35.8
2022-07-29T16:31:03.909Z,35.9
2022-07-29T16:33:08.252Z,36.1
2022-07-29T16:35:06.177Z,40
2022-07-29T16:37:07.325Z,40.4
2022-07-29T16:39:08.430Z,40.7
2022-07-29T16:41:12.857Z,42
2022-07-29T16:43:14.007Z,42.6
2022-07-29T16:45:15.174Z,42.7
2022-07-29T16:46:19.054Z,42.9
2022-07-29T16:48:18.792Z,43.1
2022-07-29T16:50:19.690Z,43
2022-07-29T16:52:20.822Z,44.1
2022-07-29T16:54:25.272Z,46.8
2022-07-29T16:56:26.423Z,47.3
2022-07-29T16:58:27.649Z,47.7
2022-07-29T17:00:28.944Z,48.2
2022-07-29T17:02:30.145Z,44
2022-07-29T17:04:31.187Z,43.5
2022-07-29T17:06:32.345Z,43.4
2022-07-29T17:10:37.919Z,42.4
2022-07-29T17:12:39.107Z,42.1
2022-07-29T17:14:40.309Z,41.9
2022-07-29T17:16:43.081Z,41.8
2022-07-29T17:18:44.163Z,41.9
2022-07-29T17:22:49.716Z,41.6
2022-07-29T17:24:50.926Z,41.7
2022-07-29T17:26:52.253Z,43.1
2022-07-29T17:30:54.444Z,45.8
2022-07-29T17:39:02.512Z,49
2022-07-29T17:41:07.697Z,49.4
2022-07-29T17:43:26.252Z,50.1
2022-07-29T17:45:50.358Z,50.2
2022-07-29T17:47:28.688Z,50.4
2022-07-29T17:49:33.106Z,50.5
2022-07-29T17:55:36.801Z,50.9
2022-07-29T17:57:38.033Z,50.5
2022-07-29T17:59:39.264Z,49.3
2022-07-29T18:09:48.651Z,47.7
2022-07-29T18:11:49.860Z,47.6
2022-07-29T18:13:51.099Z,47.6
2022-07-29T18:15:52.332Z,47.5
2022-07-29T18:17:57.519Z,46.9
2022-07-29T18:19:58.000Z,46.9
2022-07-29T18:22:03.527Z,47.2
2022-07-29T18:24:00.446Z,47.5
2022-07-29T18:26:01.656Z,48.7
2022-07-29T18:28:02.882Z,49.5
2022-07-29T18:30:04.967Z,50
2022-07-29T18:32:08.557Z,50.9
2022-07-29T18:34:09.752Z,51.1
2022-07-29T18:36:11.905Z,51.6
2022-07-29T18:37:13.245Z,52.1
2022-07-29T18:39:20.606Z,52.8
2022-07-29T18:41:15.711Z,53.2
2022-07-29T18:43:16.934Z,53.8
2022-07-29T18:45:21.445Z,54.4
2022-07-29T18:47:22.672Z,54.8
2022-07-29T18:49:23.964Z,55
2022-07-29T18:55:27.687Z,55.7
2022-07-29T18:57:55.109Z,55.8
2022-07-29T18:59:33.421Z,56
2022-07-29T19:05:37.351Z,56.1
2022-07-29T19:07:38.631Z,56.2
2022-07-29T19:09:49.256Z,56.5
2022-07-29T19:11:41.139Z,56.6
2022-07-29T19:13:45.645Z,57.1
2022-07-29T19:15:47.040Z,57.4
2022-07-29T19:17:48.229Z,57.7
2022-07-29T19:19:49.524Z,58
2022-07-29T19:21:50.823Z,58.4
2022-07-29T19:24:00.118Z,58.7
2022-07-29T19:27:58.160Z,59.8
2022-07-29T19:29:59.696Z,60.1
2022-07-29T19:32:00.792Z,60.2
2022-07-29T19:47:17.414Z,60.7
2022-07-29T19:49:17.420Z,61
2022-07-29T19:51:18.639Z,61.1
2022-07-29T19:53:19.966Z,61.2
2022-07-29T19:59:29.535Z,62.6
2022-07-29T20:01:28.850Z,62.9
2022-07-29T20:03:30.117Z,63
2022-07-29T20:05:31.483Z,62.9
2022-07-29T20:07:32.911Z,62.9
2022-07-29T20:09:37.515Z,62.9
2022-07-29T20:11:38.928Z,63.2
2022-07-29T20:13:40.348Z,63.8
2022-07-29T20:15:41.799Z,64.4
2022-07-29T20:17:43.081Z,64.9
2022-07-29T20:19:44.448Z,65.3
2022-07-29T20:21:45.835Z,65.8
2022-07-29T20:23:50.475Z,67.4
2022-07-29T20:25:51.958Z,67.9
2022-07-29T20:27:53.451Z,68.8
2022-07-29T20:30:57.168Z,70.3
2022-07-29T20:35:00.053Z,71.4
2022-07-29T20:37:04.869Z,72.3
2022-07-29T20:41:07.688Z,72.9
2022-07-29T20:43:09.153Z,73.1
2022-07-29T20:51:18.206Z,74.5
2022-07-29T20:53:19.671Z,74.8
2022-07-29T20:57:38.621Z,75.5
2022-07-29T21:01:25.649Z,76.1
2022-07-29T21:03:27.059Z,76.3
2022-07-29T21:05:31.910Z,77.3
2022-07-29T21:07:33.401Z,77.7
2022-07-29T21:09:34.870Z,78.7
2022-07-29T21:11:44.213Z,79.6
2022-07-29T21:13:37.766Z,80.1
2022-07-29T21:15:39.289Z,80.5
2022-07-29T21:17:40.784Z,81.1
2022-07-29T21:19:45.521Z,81.9
2022-07-29T21:21:47.026Z,82.3
2022-07-29T21:23:48.508Z,82.6
2022-07-29T21:26:07.761Z,83.6
2022-07-29T21:28:06.959Z,84.4
2022-07-29T21:30:08.443Z,84.9
2022-07-29T21:32:13.461Z,85.9
2022-07-29T21:34:14.728Z,86.5
2022-07-29T21:36:46.713Z,87.1
2022-07-29T21:38:17.715Z,87.7
2022-07-29T21:40:19.225Z,88.6
2022-07-29T21:42:20.706Z,89
2022-07-29T21:44:22.201Z,89.4
2022-07-29T21:46:27.052Z,90.2
2022-07-29T21:48:28.465Z,90.7
2022-07-29T21:50:29.933Z,91
2022-07-29T21:52:31.443Z,91.3
2022-07-29T21:56:34.375Z,91.9
2022-07-29T21:58:35.905Z,92.2
2022-07-29T22:04:43.764Z,94
2022-07-29T22:06:45.170Z,94.4
2022-07-29T22:08:46.671Z,94.7
2022-07-29T22:10:48.163Z,94.9
2022-07-29T22:12:49.663Z,95.2
2022-07-29T22:14:54.445Z,95.8
2022-07-29T22:19:59.833Z,96.8
2022-07-29T22:26:04.294Z,97.7
2022-07-29T22:30:10.631Z,99
2022-07-29T22:32:12.065Z,99.3
2022-07-29T22:36:15.052Z,99.8
2022-07-29T22:38:16.588Z,99.9
2022-07-29T22:40:18.029Z,99.9
2022-07-29T22:42:22.826Z,99.9
2022-07-29T22:44:24.367Z,99.9
2022-07-29T22:46:25.881Z,99.9
2022-07-29T22:48:27.341Z,99.9
2022-07-29T22:50:28.859Z,99.9
2022-07-29T22:52:30.359Z,99.9
2022-07-29T22:56:36.645Z,99.9
2022-07-29T23:00:39.669Z,99.9
2022-07-29T23:02:41.136Z,99.9
2022-07-29T23:04:42.635Z,99.9
2022-07-29T23:06:45.705Z,99.9
2022-07-29T23:10:51.944Z,99.9
2022-07-29T23:12:53.465Z,99.9
2022-07-29T23:14:54.955Z,99.9
2022-07-29T23:15:57.353Z,99.9
2022-07-29T23:17:58.825Z,99.9
2022-07-29T23:20:00.366Z,99.9
2022-07-29T23:22:01.873Z,99.9
2022-07-29T23:24:06.642Z,99.9
2022-07-29T23:36:15.684Z,99.9
2022-07-29T23:44:24.953Z,99.9
2022-07-29T23:48:27.963Z,99.9
2022-07-29T23:52:34.280Z,99.9
2022-07-29T23:54:35.749Z,99.9
2022-07-29T23:56:37.252Z,99.9
2022-07-29T23:58:38.786Z,99.9
